Terminal Aerodrome Forecast
Issued by NWS

Home | Current Version | Previous Version | Text Only | Print | Product List | Glossary On
Versions: 1 2 3 4 5 6 7 8 9 10 11 12 13 14 15
000
FTUS45 KPSR 271100
TAFBLH
TAF
KBLH 271121Z 2712/2812 VRB04KT P6SM SKC
     FM271900 17007KT P6SM SKC
     FM280300 VRB04KT P6SM SKC=

USA.gov is the U.S. government's official web portal to all federal, state and local government web resources and services.